createdAt,value
2022-10-26T00:02:12.155Z,1.00
2022-10-26T00:04:40.579Z,1.80
2022-10-26T00:07:09.209Z,3.00
2022-10-26T00:09:37.566Z,2.60
2022-10-26T00:12:06.243Z,2.60
2022-10-26T00:14:36.346Z,2.60
2022-10-26T00:17:04.622Z,3.00
2022-10-26T00:19:35.308Z,2.60
2022-10-26T00:22:03.870Z,0.00
2022-10-26T00:24:32.148Z,1.00
2022-10-26T00:27:00.393Z,1.00
2022-10-26T00:29:28.954Z,3.00
2022-10-26T00:31:58.590Z,3.00
2022-10-26T00:34:26.918Z,3.60
2022-10-26T00:36:55.199Z,3.00
2022-10-26T00:39:23.552Z,1.40
2022-10-26T00:41:51.815Z,4.00
2022-10-26T00:44:49.814Z,1.80
2022-10-26T00:47:21.035Z,3.00
2022-10-26T00:49:49.336Z,3.00
2022-10-26T00:52:17.588Z,2.50
2022-10-26T00:54:45.944Z,0.50
2022-10-26T00:57:14.295Z,0.00
2022-10-26T00:59:42.636Z,3.80
2022-10-26T01:02:10.897Z,4.40
2022-10-26T01:04:40.614Z,1.50
2022-10-26T01:07:09.234Z,0.75
2022-10-26T01:09:37.565Z,1.00
2022-10-26T01:12:06.446Z,2.00
2022-10-26T01:14:34.720Z,2.75
2022-10-26T01:17:05.481Z,0.00
2022-10-26T01:20:04.852Z,0.75
2022-10-26T01:22:34.848Z,1.80
2022-10-26T01:25:08.212Z,2.50
2022-10-26T01:27:37.031Z,0.25
2022-10-26T01:30:18.475Z,2.00
2022-10-26T01:32:49.568Z,3.75
2022-10-26T01:35:19.521Z,1.00
2022-10-26T01:37:49.748Z,1.00
2022-10-26T01:40:20.332Z,4.75
2022-10-26T01:42:51.536Z,3.00
2022-10-26T01:45:21.321Z,4.00
2022-10-26T01:47:50.028Z,1.00
2022-10-26T01:50:18.855Z,1.00
2022-10-26T01:52:49.387Z,4.00
2022-10-26T01:55:41.477Z,2.50
2022-10-26T01:58:15.035Z,1.00
2022-10-26T02:00:47.718Z,2.25
2022-10-26T02:03:17.005Z,5.00
2022-10-26T02:08:47.206Z,3.50
2022-10-26T02:11:22.678Z,3.00
2022-10-26T02:13:54.400Z,3.00
2022-10-26T02:16:26.363Z,2.50
2022-10-26T02:18:58.038Z,1.00
2022-10-26T02:21:27.712Z,2.00
2022-10-26T02:23:57.099Z,3.00
2022-10-26T02:26:26.991Z,2.00
2022-10-26T02:29:09.472Z,3.50
2022-10-26T02:31:39.594Z,1.00
2022-10-26T02:34:09.270Z,3.25
2022-10-26T02:36:39.192Z,2.00
2022-10-26T02:39:07.995Z,1.00
2022-10-26T02:41:36.618Z,1.00
2022-10-26T02:44:09.239Z,2.50
2022-10-26T02:46:39.612Z,1.00
2022-10-26T02:49:08.459Z,3.00
2022-10-26T02:51:38.988Z,2.00
2022-10-26T02:54:11.806Z,2.00
2022-10-26T02:56:43.734Z,4.00
2022-10-26T02:59:12.044Z,4.00
2022-10-26T03:01:42.134Z,3.50
2022-10-26T03:04:11.028Z,0.75
2022-10-26T03:06:39.591Z,2.25
2022-10-26T03:09:08.008Z,0.00
2022-10-26T03:11:36.560Z,5.00
2022-10-26T03:14:05.096Z,3.00
2022-10-26T03:16:33.803Z,2.00
2022-10-26T03:19:03.922Z,1.50
2022-10-26T03:21:32.681Z,2.00
2022-10-26T03:24:01.638Z,4.00
2022-10-26T03:26:30.033Z,3.75
2022-10-26T03:28:58.402Z,2.00
2022-10-26T03:31:27.676Z,3.00
2022-10-26T03:33:55.953Z,3.00
2022-10-26T03:36:25.584Z,1.00
2022-10-26T03:38:53.908Z,2.50
2022-10-26T03:41:22.571Z,3.25
2022-10-26T03:43:50.833Z,0.25
2022-10-26T03:46:19.263Z,3.00
2022-10-26T03:48:48.150Z,3.00
2022-10-26T03:51:16.546Z,3.00
2022-10-26T03:53:46.587Z,4.00
2022-10-26T03:56:15.324Z,9.50
2022-10-26T03:58:43.588Z,3.75
2022-10-26T04:01:11.885Z,3.00
2022-10-26T04:03:40.259Z,4.00
2022-10-26T04:06:08.848Z,4.00
2022-10-26T04:08:37.134Z,3.00
2022-10-26T04:11:07.064Z,2.50
2022-10-26T04:13:35.654Z,2.00
2022-10-26T04:16:03.891Z,3.00
2022-10-26T04:18:32.180Z,3.00
2022-10-26T04:21:03.447Z,2.50
2022-10-26T04:23:31.797Z,3.00
2022-10-26T04:26:00.073Z,1.50
2022-10-26T04:28:29.856Z,3.75
2022-10-26T04:30:58.078Z,2.50
2022-10-26T04:33:26.670Z,1.00
2022-10-26T04:35:54.886Z,3.00
2022-10-26T04:38:23.149Z,1.00
2022-10-26T04:40:52.397Z,2.50
2022-10-26T04:43:20.967Z,3.00
2022-10-26T04:45:50.574Z,3.50
2022-10-26T04:48:18.841Z,4.00
2022-10-26T04:50:47.702Z,4.00
2022-10-26T04:53:16.179Z,1.00
2022-10-26T04:55:44.488Z,3.00
2022-10-26T04:58:12.774Z,3.00
2022-10-26T05:00:41.013Z,2.00
2022-10-26T05:03:11.061Z,2.00
2022-10-26T05:05:39.583Z,9.00
2022-10-26T05:08:10.421Z,3.50
2022-10-26T05:10:41.279Z,1.00
2022-10-26T05:13:10.548Z,1.00
2022-10-26T05:15:38.773Z,2.50
2022-10-26T05:18:08.442Z,3.00
2022-10-26T05:20:38.090Z,3.00
2022-10-26T05:23:07.060Z,3.50
2022-10-26T05:25:36.955Z,1.00
2022-10-26T05:28:06.124Z,3.75
2022-10-26T05:30:34.828Z,4.00
2022-10-26T05:33:03.529Z,5.00
2022-10-26T05:35:32.128Z,4.50
2022-10-26T05:38:02.208Z,1.00
2022-10-26T05:40:30.450Z,1.00
2022-10-26T05:43:02.168Z,1.00
2022-10-26T05:45:30.602Z,2.00
2022-10-26T05:48:02.536Z,4.00
2022-10-26T05:50:31.837Z,3.00
2022-10-26T05:53:01.474Z,1.00
2022-10-26T05:55:30.374Z,3.00
2022-10-26T05:57:59.153Z,2.50
2022-10-26T06:00:28.975Z,5.00
2022-10-26T06:03:06.819Z,1.00
2022-10-26T06:05:37.657Z,1.00
2022-10-26T06:08:12.191Z,0.50
2022-10-26T06:10:42.118Z,0.00
2022-10-26T06:13:11.901Z,0.75
2022-10-26T06:15:47.501Z,3.00
2022-10-26T06:18:19.895Z,1.00
2022-10-26T06:20:52.287Z,0.00
2022-10-26T06:23:35.474Z,0.75
2022-10-26T06:26:06.666Z,0.00
2022-10-26T06:28:45.084Z,1.00
2022-10-26T06:31:16.078Z,0.50
2022-10-26T06:33:44.621Z,0.75
2022-10-26T06:36:19.731Z,1.50
2022-10-26T06:38:49.774Z,1.00
2022-10-26T06:41:19.496Z,0.50
2022-10-26T06:43:48.413Z,0.00
2022-10-26T06:46:22.451Z,1.00
2022-10-26T06:49:10.819Z,3.00
2022-10-26T06:51:42.660Z,1.00
2022-10-26T06:54:15.430Z,1.50
2022-10-26T06:56:43.707Z,1.00
2022-10-26T06:59:16.790Z,1.00
2022-10-26T07:01:45.140Z,1.50
2022-10-26T07:04:13.588Z,0.75
2022-10-26T07:06:41.803Z,1.00
2022-10-26T07:09:10.153Z,1.00
2022-10-26T07:11:39.754Z,0.00
2022-10-26T07:14:08.741Z,0.75
2022-10-26T07:16:37.606Z,1.50
2022-10-26T07:19:05.945Z,0.75
2022-10-26T07:21:34.605Z,3.00
2022-10-26T07:24:02.908Z,2.00
2022-10-26T07:26:31.356Z,2.50
2022-10-26T07:29:01.724Z,1.00
2022-10-26T07:31:30.011Z,1.00
2022-10-26T07:33:58.407Z,1.00
2022-10-26T07:36:26.929Z,1.00
2022-10-26T07:38:55.494Z,1.00
2022-10-26T07:41:41.312Z,2.50
2022-10-26T07:44:11.505Z,1.00
2022-10-26T07:46:39.885Z,2.50
2022-10-26T07:49:08.121Z,1.00
2022-10-26T07:51:36.801Z,1.00
2022-10-26T07:54:23.393Z,4.00
2022-10-26T07:56:51.766Z,0.00
2022-10-26T07:59:21.440Z,1.50
2022-10-26T08:01:49.843Z,1.50
2022-10-26T08:04:18.167Z,3.00
2022-10-26T08:06:47.369Z,1.00
2022-10-26T08:09:15.647Z,0.00
2022-10-26T08:11:44.247Z,3.75
2022-10-26T08:14:31.245Z,3.00
2022-10-26T08:17:01.294Z,3.00
2022-10-26T08:19:29.879Z,1.00
2022-10-26T08:21:59.240Z,1.50
2022-10-26T08:24:27.513Z,1.00
2022-10-26T08:26:55.728Z,3.00
2022-10-26T08:29:24.324Z,2.00
2022-10-26T08:31:52.594Z,2.00
2022-10-26T08:34:22.387Z,2.00
2022-10-26T08:36:51.643Z,1.00
2022-10-26T08:39:20.372Z,2.00
2022-10-26T08:41:52.925Z,3.50
2022-10-26T08:44:25.556Z,1.00
2022-10-26T08:46:55.930Z,0.25
2022-10-26T08:49:26.683Z,4.75
2022-10-26T08:51:56.449Z,3.00
2022-10-26T08:54:30.133Z,3.00
2022-10-26T08:57:00.168Z,2.00
2022-10-26T08:59:32.526Z,3.25
2022-10-26T09:02:02.971Z,3.25
2022-10-26T09:04:34.536Z,3.00
2022-10-26T09:07:06.525Z,5.50
2022-10-26T09:09:40.356Z,3.75
2022-10-26T09:12:11.187Z,3.00
2022-10-26T09:14:43.775Z,3.25
2022-10-26T09:17:14.717Z,2.50
2022-10-26T09:19:58.090Z,3.50
2022-10-26T09:23:17.493Z,3.00
2022-10-26T09:25:53.502Z,4.00
2022-10-26T09:28:22.769Z,5.00
2022-10-26T09:30:51.057Z,3.00
2022-10-26T09:33:20.215Z,5.75
2022-10-26T09:35:51.417Z,6.50
2022-10-26T09:38:22.484Z,4.00
2022-10-26T09:40:54.102Z,4.00
2022-10-26T09:43:24.805Z,3.25
2022-10-26T09:45:53.727Z,4.00
2022-10-26T09:48:29.513Z,3.75
2022-10-26T09:51:03.668Z,3.25
2022-10-26T09:53:33.138Z,3.50
2022-10-26T09:56:03.637Z,3.00
2022-10-26T09:58:33.236Z,3.50
2022-10-26T10:01:01.482Z,4.00
2022-10-26T10:03:30.855Z,6.25
2022-10-26T10:06:17.182Z,6.50
2022-10-26T10:08:46.758Z,3.50
2022-10-26T10:11:15.592Z,4.00
2022-10-26T10:13:44.638Z,4.00
2022-10-26T10:16:14.770Z,3.00
2022-10-26T10:18:43.336Z,4.00
2022-10-26T10:21:14.430Z,3.50
2022-10-26T10:23:49.779Z,6.75
2022-10-26T10:26:18.036Z,4.00
2022-10-26T10:28:57.678Z,6.00
2022-10-26T10:31:29.111Z,6.25
2022-10-26T10:33:57.424Z,4.00
2022-10-26T10:36:29.932Z,4.00
2022-10-26T10:38:59.476Z,6.00
2022-10-26T10:41:30.642Z,5.00
2022-10-26T10:44:02.935Z,3.00
2022-10-26T10:46:31.638Z,5.00
2022-10-26T10:49:05.020Z,4.00
2022-10-26T10:51:38.019Z,3.00
2022-10-26T10:54:07.055Z,5.00
2022-10-26T10:56:37.897Z,5.50
2022-10-26T10:59:18.092Z,6.50
2022-10-26T11:01:49.641Z,4.00
2022-10-26T11:04:27.448Z,3.25
2022-10-26T11:06:57.922Z,6.00
2022-10-26T11:09:30.740Z,6.25
2022-10-26T11:12:06.796Z,6.00
2022-10-26T11:14:43.299Z,1.00
2022-10-26T11:17:20.352Z,6.00
2022-10-26T11:19:50.668Z,5.00
2022-10-26T11:22:22.642Z,7.00
2022-10-26T11:24:51.939Z,3.50
2022-10-26T11:27:23.817Z,4.50
2022-10-26T11:29:54.909Z,4.00
2022-10-26T11:32:24.441Z,5.75
2022-10-26T11:34:55.484Z,4.00
2022-10-26T11:37:27.375Z,6.25
2022-10-26T11:40:25.501Z,4.00
2022-10-26T11:43:07.340Z,4.00
2022-10-26T11:48:35.821Z,3.50
2022-10-26T11:51:04.461Z,6.50
2022-10-26T11:53:37.023Z,3.75
2022-10-26T11:56:05.579Z,4.00
2022-10-26T11:58:37.853Z,4.75
2022-10-26T12:01:12.999Z,4.75
2022-10-26T12:03:45.723Z,5.75
2022-10-26T12:06:14.264Z,1.00
2022-10-26T12:08:45.222Z,3.50
2022-10-26T12:11:15.988Z,4.00
2022-10-26T12:13:46.960Z,6.25
2022-10-26T12:16:20.404Z,5.50
2022-10-26T12:18:55.584Z,4.00
2022-10-26T12:21:26.882Z,4.50
2022-10-26T12:23:58.849Z,7.00
2022-10-26T12:26:42.219Z,4.00
2022-10-26T12:29:37.267Z,6.50
2022-10-26T12:32:09.222Z,4.00
2022-10-26T12:34:58.887Z,4.00
2022-10-26T12:37:33.686Z,1.00
2022-10-26T12:40:33.833Z,4.00
2022-10-26T12:43:34.766Z,5.25
2022-10-26T12:46:32.575Z,6.75
2022-10-26T12:49:01.198Z,0.75
2022-10-26T12:51:43.465Z,3.50
2022-10-26T12:54:30.018Z,7.00
2022-10-26T12:57:02.245Z,4.25
2022-10-26T12:59:34.256Z,7.00
2022-10-26T13:02:27.171Z,5.00
2022-10-26T13:05:14.871Z,3.50
2022-10-26T13:07:44.017Z,6.50
2022-10-26T13:10:35.011Z,4.00
2022-10-26T13:15:59.958Z,4.50
2022-10-26T13:18:28.905Z,2.25
2022-10-26T13:21:02.727Z,3.50
2022-10-26T13:26:19.089Z,5.00
2022-10-26T13:28:51.524Z,4.00
2022-10-26T13:31:49.679Z,4.00
2022-10-26T13:34:20.403Z,2.00
2022-10-26T13:36:51.924Z,2.75
2022-10-26T13:39:22.034Z,2.50
2022-10-26T13:41:52.669Z,2.00
2022-10-26T13:44:25.933Z,2.00
2022-10-26T13:46:56.467Z,2.00
2022-10-26T13:49:47.818Z,4.00
2022-10-26T13:52:20.131Z,2.50
2022-10-26T13:54:50.814Z,4.00
2022-10-26T13:57:22.058Z,1.25
2022-10-26T13:59:51.152Z,2.00
2022-10-26T14:02:26.474Z,2.00
2022-10-26T14:05:01.034Z,2.00
2022-10-26T14:10:42.853Z,1.00
2022-10-26T14:13:17.708Z,1.00
2022-10-26T14:15:48.388Z,4.00
2022-10-26T14:18:19.349Z,2.00
2022-10-26T14:20:52.588Z,1.00
2022-10-26T14:23:28.817Z,2.00
2022-10-26T14:25:59.304Z,1.00
2022-10-26T14:28:29.243Z,2.00
2022-10-26T14:31:15.257Z,3.00
2022-10-26T14:33:46.622Z,3.50
2022-10-26T14:36:16.335Z,2.00
2022-10-26T14:38:45.928Z,3.00
2022-10-26T14:41:15.524Z,1.75
2022-10-26T14:43:44.134Z,1.00
2022-10-26T14:46:16.233Z,1.00
2022-10-26T14:48:52.836Z,2.00
2022-10-26T14:51:23.616Z,1.00
2022-10-26T14:56:41.464Z,2.00
2022-10-26T14:59:14.210Z,1.00
2022-10-26T15:01:49.904Z,1.75
2022-10-26T15:04:29.670Z,1.00
2022-10-26T15:07:18.276Z,2.00
2022-10-26T15:09:47.518Z,1.00
2022-10-26T15:12:21.909Z,0.75
2022-10-26T15:14:50.335Z,2.25
2022-10-26T15:17:22.667Z,2.25
2022-10-26T15:19:52.101Z,1.00
2022-10-26T15:22:30.882Z,3.50
2022-10-26T15:25:02.026Z,6.00
2022-10-26T15:27:30.507Z,3.50
2022-10-26T15:30:13.737Z,1.00
2022-10-26T15:32:46.371Z,1.00
2022-10-26T15:35:31.685Z,1.75
2022-10-26T15:38:02.297Z,2.50
2022-10-26T15:40:30.881Z,5.25
2022-10-26T15:43:01.519Z,3.50
2022-10-26T15:45:31.946Z,0.00
2022-10-26T15:48:00.989Z,3.00
2022-10-26T15:50:29.942Z,3.25
2022-10-26T15:53:01.219Z,1.75
2022-10-26T15:55:31.579Z,1.00
2022-10-26T15:58:00.457Z,1.00
2022-10-26T16:00:47.033Z,2.50
2022-10-26T16:03:15.789Z,3.00
2022-10-26T16:05:44.103Z,1.00
2022-10-26T16:08:17.083Z,0.00
2022-10-26T16:10:48.413Z,2.50
2022-10-26T16:13:16.915Z,1.00
2022-10-26T16:15:45.476Z,3.50
2022-10-26T16:18:32.642Z,1.50
2022-10-26T16:21:01.210Z,1.50
2022-10-26T16:23:29.425Z,3.25
2022-10-26T16:25:59.110Z,3.00
2022-10-26T16:28:27.411Z,3.00
2022-10-26T16:31:14.478Z,2.50
2022-10-26T16:33:42.707Z,3.25
2022-10-26T16:36:11.580Z,3.00
2022-10-26T16:38:39.827Z,9.75
2022-10-26T16:43:57.062Z,5.50
2022-10-26T16:46:25.406Z,5.50
2022-10-26T16:48:53.736Z,9.50
2022-10-26T16:51:22.977Z,12.00
2022-10-26T16:53:52.639Z,9.00
2022-10-26T16:56:22.913Z,7.00
2022-10-26T16:58:51.193Z,10.00
2022-10-26T17:01:38.173Z,10.00
2022-10-26T17:04:06.697Z,6.00
2022-10-26T17:06:36.145Z,7.00
2022-10-26T17:09:04.473Z,9.00
2022-10-26T17:11:34.046Z,15.25
2022-10-26T17:14:02.347Z,15.50
2022-10-26T17:16:30.689Z,18.00
2022-10-26T17:18:59.250Z,7.00
2022-10-26T17:21:30.911Z,12.50
2022-10-26T17:24:17.179Z,6.75
2022-10-26T17:26:47.235Z,12.50
2022-10-26T17:29:15.501Z,5.50
2022-10-26T17:31:43.736Z,6.50
2022-10-26T17:34:12.183Z,11.75
2022-10-26T17:36:40.449Z,6.00
2022-10-26T17:39:08.659Z,8.75
2022-10-26T17:41:37.781Z,10.00
2022-10-26T17:44:09.410Z,12.50
2022-10-26T17:46:38.002Z,7.50
2022-10-26T17:49:06.299Z,6.00
2022-10-26T17:51:34.594Z,4.00
2022-10-26T17:54:03.168Z,13.00
2022-10-26T17:56:50.312Z,7.00
2022-10-26T17:59:20.390Z,8.00
2022-10-26T18:01:48.980Z,9.00
2022-10-26T18:04:17.729Z,9.00
2022-10-26T18:06:46.070Z,9.50
2022-10-26T18:09:14.336Z,1.00
2022-10-26T18:11:42.585Z,4.00
2022-10-26T18:14:11.331Z,5.50
2022-10-26T18:16:51.413Z,7.00
2022-10-26T18:19:19.898Z,5.00
2022-10-26T18:21:48.338Z,5.50
2022-10-26T18:24:16.733Z,6.00
2022-10-26T18:26:44.977Z,3.00
2022-10-26T18:29:14.149Z,6.00
2022-10-26T18:31:45.243Z,5.50
2022-10-26T18:34:13.554Z,3.00
2022-10-26T18:36:41.781Z,3.50
2022-10-26T18:39:10.007Z,4.50
2022-10-26T18:41:38.234Z,3.25
2022-10-26T18:44:06.459Z,6.50
2022-10-26T18:46:39.902Z,4.50
2022-10-26T18:49:14.686Z,1.00
2022-10-26T18:51:51.386Z,3.50
2022-10-26T18:54:19.708Z,3.75
2022-10-26T18:56:47.917Z,6.50
2022-10-26T18:59:16.124Z,6.00
2022-10-26T19:01:45.891Z,9.50
2022-10-26T19:04:15.835Z,10.00
2022-10-26T19:06:45.624Z,16.50
2022-10-26T19:09:13.926Z,24.00
2022-10-26T19:11:42.480Z,30.40
2022-10-26T19:14:11.002Z,12.00
2022-10-26T19:16:57.698Z,13.75
2022-10-26T19:19:27.461Z,15.75
2022-10-26T19:21:56.100Z,15.00
2022-10-26T19:24:25.024Z,12.50
2022-10-26T19:26:54.285Z,10.50
2022-10-26T19:29:23.853Z,8.00
2022-10-26T19:31:53.204Z,10.00
2022-10-26T19:34:22.394Z,28.75
2022-10-26T19:36:52.591Z,20.50
2022-10-26T19:39:22.803Z,13.00
2022-10-26T19:41:51.319Z,12.75
2022-10-26T19:44:37.075Z,11.00
2022-10-26T19:47:05.874Z,15.00
2022-10-26T19:52:21.271Z,8.00
2022-10-26T19:54:49.536Z,7.00
2022-10-26T19:57:17.737Z,13.50
2022-10-26T19:59:45.958Z,5.00
2022-10-26T20:02:14.511Z,15.50
2022-10-26T20:04:42.742Z,12.00
2022-10-26T20:07:11.199Z,9.50
2022-10-26T20:09:40.858Z,9.00
2022-10-26T20:12:12.746Z,8.50
2022-10-26T20:14:41.519Z,7.50
2022-10-26T20:17:09.736Z,3.75
2022-10-26T20:19:37.963Z,6.75
2022-10-26T20:22:06.150Z,6.50
2022-10-26T20:24:34.387Z,5.50
2022-10-26T20:27:04.064Z,6.00
2022-10-26T20:29:32.300Z,12.50
2022-10-26T20:32:00.502Z,9.00
2022-10-26T20:37:01.993Z,6.50
2022-10-26T20:39:30.971Z,3.00
2022-10-26T20:41:59.687Z,3.75
2022-10-26T20:44:31.974Z,4.50
2022-10-26T20:47:00.535Z,4.00
2022-10-26T20:49:29.415Z,5.50
2022-10-26T20:52:21.285Z,3.75
2022-10-26T20:54:53.072Z,2.00
2022-10-26T20:57:23.878Z,3.25
2022-10-26T20:59:54.189Z,6.00
2022-10-26T21:02:22.669Z,4.00
2022-10-26T21:04:51.277Z,5.00
2022-10-26T21:07:19.532Z,3.50
2022-10-26T21:09:47.737Z,4.00
2022-10-26T21:12:15.981Z,6.00
2022-10-26T21:14:44.139Z,3.50
2022-10-26T21:17:13.872Z,2.25
2022-10-26T21:19:42.681Z,3.00
2022-10-26T21:22:10.930Z,6.00
2022-10-26T21:24:39.136Z,3.25
2022-10-26T21:27:07.614Z,3.50
2022-10-26T21:29:35.767Z,4.00
2022-10-26T21:32:04.167Z,2.00
2022-10-26T21:34:33.811Z,3.00
2022-10-26T21:37:02.679Z,1.00
2022-10-26T21:39:30.839Z,3.00
2022-10-26T21:41:59.062Z,3.75
2022-10-26T21:44:40.381Z,4.25
2022-10-26T21:47:10.334Z,3.00
2022-10-26T21:52:13.401Z,6.25
2022-10-26T21:54:41.567Z,4.00
2022-10-26T21:57:09.765Z,3.25
2022-10-26T21:59:37.917Z,6.00
2022-10-26T22:02:06.506Z,4.50
2022-10-26T22:04:35.060Z,3.00
2022-10-26T22:07:04.590Z,3.75
2022-10-26T22:09:37.361Z,5.00
2022-10-26T22:12:13.418Z,4.00
2022-10-26T22:14:41.602Z,3.00
2022-10-26T22:17:10.070Z,6.00
2022-10-26T22:19:38.243Z,6.50
2022-10-26T22:22:07.752Z,6.00
2022-10-26T22:24:35.915Z,3.75
2022-10-26T22:27:04.351Z,6.00
2022-10-26T22:29:32.510Z,3.00
2022-10-26T22:32:00.650Z,3.50
2022-10-26T22:34:28.825Z,3.00
2022-10-26T22:36:56.956Z,3.00
2022-10-26T22:39:26.944Z,3.25
2022-10-26T22:41:55.081Z,6.00
2022-10-26T22:44:23.268Z,4.00
2022-10-26T22:46:51.398Z,1.00
2022-10-26T22:49:19.553Z,4.00
2022-10-26T22:51:47.691Z,4.50
2022-10-26T22:54:15.912Z,5.50
2022-10-26T22:56:45.735Z,3.00
2022-10-26T22:59:13.882Z,3.00
2022-10-26T23:01:42.164Z,3.50
2022-10-26T23:04:11.770Z,3.25
2022-10-26T23:06:40.326Z,4.00
2022-10-26T23:09:08.537Z,5.50
2022-10-26T23:11:36.703Z,3.50
2022-10-26T23:14:06.478Z,3.50
2022-10-26T23:16:34.646Z,3.50
2022-10-26T23:19:02.790Z,6.00
2022-10-26T23:21:30.955Z,4.00
2022-10-26T23:23:59.130Z,3.00
2022-10-26T23:26:27.824Z,4.00
2022-10-26T23:28:56.335Z,3.25
2022-10-26T23:31:27.014Z,3.00
2022-10-26T23:33:55.882Z,5.50
2022-10-26T23:36:24.883Z,6.25
2022-10-26T23:38:53.153Z,5.00
2022-10-26T23:41:21.502Z,3.75
2022-10-26T23:43:51.887Z,6.00
2022-10-26T23:46:22.512Z,4.00
2022-10-26T23:48:52.424Z,4.00
2022-10-26T23:51:21.043Z,3.80
2022-10-26T23:53:49.285Z,3.75
2022-10-26T23:56:17.479Z,5.50
2022-10-26T23:58:45.714Z,4.00
